createdAt,value
2023-05-21T00:00:44.041Z,100.00
2023-05-21T00:03:14.299Z,100.00
2023-05-21T00:05:41.653Z,100.00
2023-05-21T00:08:08.940Z,100.00
2023-05-21T00:10:36.025Z,100.00
2023-05-21T00:13:03.261Z,100.00
2023-05-21T00:15:30.483Z,100.00
2023-05-21T00:17:57.705Z,100.00
2023-05-21T00:20:24.911Z,100.00
2023-05-21T00:22:52.092Z,100.00
2023-05-21T00:25:19.351Z,100.00
2023-05-21T00:27:46.610Z,100.00
2023-05-21T00:30:13.709Z,100.00
2023-05-21T00:32:41.315Z,100.00
2023-05-21T00:35:08.899Z,100.00
2023-05-21T00:37:35.946Z,100.00
2023-05-21T00:40:05.862Z,100.00
2023-05-21T00:42:33.867Z,100.00
2023-05-21T00:45:00.969Z,100.00
2023-05-21T00:47:29.957Z,100.00
2023-05-21T00:49:57.329Z,100.00
2023-05-21T00:52:27.232Z,100.00
2023-05-21T00:54:55.219Z,100.00
2023-05-21T00:57:25.553Z,100.00
2023-05-21T00:59:53.695Z,100.00
2023-05-21T01:02:24.549Z,100.00
2023-05-21T01:04:55.568Z,100.00
2023-05-21T01:07:22.693Z,100.00
2023-05-21T01:09:49.871Z,100.00
2023-05-21T01:12:18.964Z,100.00
2023-05-21T01:14:46.286Z,100.00
2023-05-21T01:17:14.256Z,100.00
2023-05-21T01:19:44.757Z,100.00
2023-05-21T01:22:14.509Z,100.00
2023-05-21T01:24:41.890Z,100.00
2023-05-21T01:27:10.733Z,100.00
2023-05-21T01:29:37.924Z,100.00
2023-05-21T01:32:14.866Z,100.00
2023-05-21T01:34:57.152Z,100.00
2023-05-21T01:37:47.966Z,100.00
2023-05-21T01:40:22.822Z,100.00
2023-05-21T01:42:49.932Z,100.00
2023-05-21T01:45:18.537Z,100.00
2023-05-21T01:47:48.592Z,100.00
2023-05-21T01:50:16.800Z,100.00
2023-05-21T01:52:53.284Z,100.00
2023-05-21T01:55:30.986Z,100.00
2023-05-21T01:58:01.986Z,100.00
2023-05-21T02:00:31.137Z,100.00
2023-05-21T02:02:58.983Z,100.00
2023-05-21T02:05:26.347Z,100.00
2023-05-21T02:07:55.180Z,100.00
2023-05-21T02:10:23.242Z,100.00
2023-05-21T02:12:50.383Z,100.00
2023-05-21T02:15:20.389Z,100.00
2023-05-21T02:17:47.769Z,100.00
2023-05-21T02:20:15.093Z,100.00
2023-05-21T02:22:44.779Z,100.00
2023-05-21T02:25:13.949Z,100.00
2023-05-21T02:27:42.817Z,100.00
2023-05-21T02:30:12.159Z,100.00
2023-05-21T02:32:43.314Z,100.00
2023-05-21T02:35:12.809Z,100.00
2023-05-21T02:37:40.921Z,100.00
2023-05-21T02:40:10.048Z,100.00
2023-05-21T02:42:40.100Z,100.00
2023-05-21T02:45:11.662Z,100.00
2023-05-21T02:47:39.761Z,100.00
2023-05-21T02:50:08.850Z,100.00
2023-05-21T02:52:40.101Z,100.00
2023-05-21T02:55:07.964Z,100.00
2023-05-21T02:57:35.633Z,100.00
2023-05-21T03:00:06.170Z,100.00
2023-05-21T03:02:34.049Z,100.00
2023-05-21T03:05:01.357Z,100.00
2023-05-21T03:07:28.567Z,100.00
2023-05-21T03:09:55.871Z,100.00
2023-05-21T03:12:23.260Z,100.00
2023-05-21T03:14:51.620Z,100.00
2023-05-21T03:17:20.854Z,100.00
2023-05-21T03:19:49.371Z,100.00
2023-05-21T03:22:16.854Z,100.00
2023-05-21T03:24:45.377Z,100.00
2023-05-21T03:27:12.885Z,100.00
2023-05-21T03:29:40.409Z,100.00
2023-05-21T03:32:08.144Z,100.00
2023-05-21T03:34:35.801Z,100.00
2023-05-21T03:37:03.086Z,100.00
2023-05-21T03:39:30.332Z,100.00
2023-05-21T03:41:57.583Z,100.00
2023-05-21T03:44:35.634Z,100.00
2023-05-21T03:47:16.811Z,100.00
2023-05-21T03:49:44.017Z,100.00
2023-05-21T03:52:11.383Z,100.00
2023-05-21T03:54:38.489Z,100.00
2023-05-21T03:57:07.661Z,100.00
2023-05-21T03:59:35.056Z,100.00
2023-05-21T04:02:02.405Z,100.00
2023-05-21T04:04:29.901Z,100.00
2023-05-21T04:06:57.088Z,100.00
2023-05-21T04:09:24.330Z,100.00
2023-05-21T04:11:52.471Z,100.00
2023-05-21T04:14:20.918Z,100.00
2023-05-21T04:16:49.423Z,100.00
2023-05-21T04:19:17.363Z,100.00
2023-05-21T04:21:45.330Z,100.00
2023-05-21T04:24:15.376Z,100.00
2023-05-21T04:26:50.144Z,100.00
2023-05-21T04:29:21.345Z,100.00
2023-05-21T04:31:49.909Z,100.00
2023-05-21T04:34:18.123Z,100.00
2023-05-21T04:36:46.141Z,100.00
2023-05-21T04:39:14.854Z,100.00
2023-05-21T04:41:41.996Z,100.00
2023-05-21T04:44:09.924Z,100.00
2023-05-21T04:46:39.654Z,100.00
2023-05-21T04:49:29.037Z,100.00
2023-05-21T04:51:57.092Z,100.00
2023-05-21T04:54:24.340Z,100.00
2023-05-21T04:56:51.779Z,100.00
2023-05-21T04:59:19.057Z,100.00
2023-05-21T05:01:46.497Z,100.00
2023-05-21T05:04:13.630Z,100.00
2023-05-21T05:06:40.820Z,100.00
2023-05-21T05:09:08.899Z,100.00
2023-05-21T05:11:36.270Z,100.00
2023-05-21T05:14:10.186Z,100.00
2023-05-21T05:16:38.471Z,100.00
2023-05-21T05:19:05.878Z,100.00
2023-05-21T05:21:33.420Z,100.00
2023-05-21T05:24:01.071Z,100.00
2023-05-21T05:26:29.700Z,100.00
2023-05-21T05:28:56.918Z,100.00
2023-05-21T05:31:24.357Z,100.00
2023-05-21T05:33:53.291Z,100.00
2023-05-21T05:36:22.750Z,100.00
2023-05-21T05:38:50.113Z,100.00
2023-05-21T05:41:17.381Z,100.00
2023-05-21T05:43:44.850Z,100.00
2023-05-21T05:46:12.522Z,100.00
2023-05-21T05:48:39.999Z,100.00
2023-05-21T05:51:07.210Z,100.00
2023-05-21T05:53:34.592Z,100.00
2023-05-21T05:56:01.857Z,99.88
2023-05-21T05:58:31.244Z,98.88
2023-05-21T06:01:13.811Z,96.65
2023-05-21T06:03:41.322Z,91.49
2023-05-21T06:06:17.498Z,90.25
2023-05-21T06:08:45.318Z,89.67
2023-05-21T06:11:17.814Z,91.03
2023-05-21T06:13:45.889Z,91.55
2023-05-21T06:16:14.268Z,91.60
2023-05-21T06:18:41.790Z,91.23
2023-05-21T06:21:09.294Z,90.84
2023-05-21T06:23:38.482Z,89.15
2023-05-21T06:26:07.677Z,88.93
2023-05-21T06:28:34.941Z,88.81
2023-05-21T06:31:02.450Z,86.47
2023-05-21T06:33:30.402Z,83.05
2023-05-21T06:35:57.655Z,82.07
2023-05-21T06:38:24.799Z,81.96
2023-05-21T06:40:54.029Z,80.29
2023-05-21T06:43:44.035Z,78.80
2023-05-21T06:46:30.116Z,79.09
2023-05-21T06:48:57.746Z,76.95
2023-05-21T06:51:25.520Z,73.36
2023-05-21T06:53:53.246Z,71.54
2023-05-21T06:56:21.885Z,71.11
2023-05-21T06:58:50.245Z,68.88
2023-05-21T07:01:17.392Z,66.87
2023-05-21T07:03:45.466Z,66.36
2023-05-21T07:06:12.698Z,66.60
2023-05-21T07:08:39.796Z,65.82
2023-05-21T07:11:06.978Z,65.96
2023-05-21T07:13:36.599Z,65.46
2023-05-21T07:16:03.859Z,63.25
2023-05-21T07:18:31.538Z,62.69
2023-05-21T07:20:58.702Z,62.31
2023-05-21T07:23:31.149Z,62.41
2023-05-21T07:25:58.867Z,61.71
2023-05-21T07:28:26.052Z,60.59
2023-05-21T07:30:53.323Z,60.02
2023-05-21T07:33:23.559Z,59.40
2023-05-21T07:35:52.610Z,58.97
2023-05-21T07:38:19.800Z,58.09
2023-05-21T07:40:47.211Z,58.02
2023-05-21T07:43:14.704Z,58.00
2023-05-21T07:45:42.059Z,57.10
2023-05-21T07:48:09.767Z,56.23
2023-05-21T07:50:40.354Z,56.41
2023-05-21T07:53:07.716Z,56.48
2023-05-21T07:55:35.414Z,56.38
2023-05-21T07:58:02.822Z,55.23
2023-05-21T08:00:43.638Z,53.57
2023-05-21T08:03:12.252Z,52.76
2023-05-21T08:05:39.607Z,52.47
2023-05-21T08:08:06.841Z,52.44
2023-05-21T08:10:34.113Z,52.75
2023-05-21T08:13:01.660Z,52.65
2023-05-21T08:15:28.761Z,52.68
2023-05-21T08:17:56.244Z,53.12
2023-05-21T08:20:23.499Z,53.04
2023-05-21T08:22:50.768Z,52.09
2023-05-21T08:25:18.010Z,51.66
2023-05-21T08:27:45.177Z,51.34
2023-05-21T08:30:13.547Z,51.55
2023-05-21T08:32:40.892Z,51.67
2023-05-21T08:35:08.864Z,50.62
2023-05-21T08:37:54.754Z,49.62
2023-05-21T08:40:47.610Z,49.38
2023-05-21T08:43:16.807Z,48.57
2023-05-21T08:45:53.457Z,48.19
2023-05-21T08:48:23.459Z,48.08
2023-05-21T08:50:54.840Z,48.41
2023-05-21T08:53:29.480Z,48.47
2023-05-21T08:56:00.362Z,48.29
2023-05-21T08:58:49.383Z,48.23
2023-05-21T09:01:20.072Z,47.31
2023-05-21T09:03:53.489Z,46.67
2023-05-21T09:06:21.837Z,45.97
2023-05-21T09:08:58.237Z,45.21
2023-05-21T09:11:30.403Z,44.44
2023-05-21T09:14:00.602Z,44.17
2023-05-21T09:16:34.654Z,43.31
2023-05-21T09:19:08.433Z,43.21
2023-05-21T09:21:35.881Z,43.46
2023-05-21T09:24:06.585Z,43.36
2023-05-21T09:26:35.071Z,43.35
2023-05-21T09:29:07.244Z,42.81
2023-05-21T09:31:40.479Z,42.26
2023-05-21T09:34:07.708Z,42.26
2023-05-21T09:36:38.703Z,42.31
2023-05-21T09:39:05.920Z,42.47
2023-05-21T09:41:35.176Z,42.97
2023-05-21T09:44:02.907Z,43.30
2023-05-21T09:46:40.824Z,43.33
2023-05-21T09:49:23.446Z,43.43
2023-05-21T09:51:51.032Z,43.59
2023-05-21T09:54:18.166Z,43.41
2023-05-21T09:56:46.332Z,43.39
2023-05-21T09:59:13.639Z,43.56
2023-05-21T10:01:41.286Z,43.88
2023-05-21T10:04:09.342Z,44.18
2023-05-21T10:06:42.470Z,44.55
2023-05-21T10:09:14.697Z,44.94
2023-05-21T10:11:45.151Z,45.30
2023-05-21T10:14:19.924Z,45.77
2023-05-21T10:16:47.909Z,45.91
2023-05-21T10:19:16.475Z,46.14
2023-05-21T10:21:45.099Z,46.52
2023-05-21T10:24:14.039Z,46.43
2023-05-21T10:26:42.009Z,46.55
2023-05-21T10:29:10.304Z,46.18
2023-05-21T10:31:39.210Z,45.82
2023-05-21T10:34:06.948Z,45.32
2023-05-21T10:36:36.869Z,45.47
2023-05-21T10:39:04.506Z,45.76
2023-05-21T10:41:42.908Z,45.97
2023-05-21T10:44:28.703Z,46.49
2023-05-21T10:47:30.254Z,46.23
2023-05-21T10:50:38.205Z,46.06
2023-05-21T10:53:22.559Z,47.00
2023-05-21T10:56:11.618Z,47.91
2023-05-21T10:59:04.370Z,48.93
2023-05-21T11:01:47.036Z,50.31
2023-05-21T11:04:15.967Z,51.70
2023-05-21T11:06:48.811Z,51.42
2023-05-21T11:09:16.645Z,51.52
2023-05-21T11:11:45.210Z,51.76
2023-05-21T11:14:29.054Z,51.71
2023-05-21T11:16:57.277Z,51.54
2023-05-21T11:19:43.581Z,50.55
2023-05-21T11:22:27.580Z,49.61
2023-05-21T11:24:56.427Z,48.32
2023-05-21T11:27:36.988Z,47.69
2023-05-21T11:30:05.808Z,47.02
2023-05-21T11:32:33.247Z,46.90
2023-05-21T11:35:03.692Z,46.99
2023-05-21T11:37:33.383Z,47.21
2023-05-21T11:40:21.405Z,46.54
2023-05-21T11:42:56.524Z,45.78
2023-05-21T11:45:32.980Z,45.73
2023-05-21T11:48:02.936Z,45.47
2023-05-21T11:50:32.292Z,45.38
2023-05-21T11:53:00.301Z,45.49
2023-05-21T11:55:28.084Z,45.45
2023-05-21T11:57:55.847Z,44.95
2023-05-21T12:00:23.303Z,43.60
2023-05-21T12:02:54.251Z,43.14
2023-05-21T12:05:22.646Z,42.84
2023-05-21T12:07:50.660Z,42.62
2023-05-21T12:10:22.019Z,42.80
2023-05-21T12:12:55.775Z,42.95
2023-05-21T12:15:25.370Z,43.07
2023-05-21T12:17:55.372Z,43.28
2023-05-21T12:20:23.450Z,43.77
2023-05-21T12:22:50.806Z,44.10
2023-05-21T12:25:20.349Z,44.44
2023-05-21T12:27:51.163Z,44.49
2023-05-21T12:30:18.592Z,44.69
2023-05-21T12:32:48.032Z,44.71
2023-05-21T12:35:23.207Z,44.57
2023-05-21T12:37:51.285Z,44.57
2023-05-21T12:40:20.336Z,44.85
2023-05-21T12:42:47.665Z,44.94
2023-05-21T12:45:14.978Z,45.15
2023-05-21T12:47:47.986Z,45.43
2023-05-21T12:50:15.170Z,45.55
2023-05-21T12:52:43.277Z,45.87
2023-05-21T12:55:17.285Z,46.28
2023-05-21T12:57:44.813Z,46.84
2023-05-21T13:00:14.020Z,47.37
2023-05-21T13:02:44.839Z,47.76
2023-05-21T13:05:19.860Z,48.15
2023-05-21T13:07:48.172Z,48.71
2023-05-21T13:10:17.217Z,49.38
2023-05-21T13:12:46.306Z,49.84
2023-05-21T13:15:13.566Z,50.42
2023-05-21T13:17:40.748Z,50.84
2023-05-21T13:20:26.674Z,51.28
2023-05-21T13:22:54.300Z,51.67
2023-05-21T13:25:25.111Z,52.12
2023-05-21T13:27:53.777Z,52.38
2023-05-21T13:30:24.477Z,53.00
2023-05-21T13:32:52.771Z,53.48
2023-05-21T13:35:20.130Z,53.80
2023-05-21T13:37:47.538Z,54.17
2023-05-21T13:40:16.084Z,54.73
2023-05-21T13:42:45.557Z,55.09
2023-05-21T13:45:15.168Z,55.29
2023-05-21T13:47:43.240Z,55.77
2023-05-21T13:50:11.020Z,56.02
2023-05-21T13:52:38.669Z,56.37
2023-05-21T13:55:06.674Z,56.85
2023-05-21T13:57:34.184Z,57.39
2023-05-21T14:00:01.724Z,58.01
2023-05-21T14:02:34.873Z,58.16
2023-05-21T14:05:02.310Z,58.54
2023-05-21T14:07:29.376Z,58.69
2023-05-21T14:09:56.966Z,58.87
2023-05-21T14:12:24.241Z,58.84
2023-05-21T14:14:51.806Z,58.97
2023-05-21T14:17:18.900Z,59.07
2023-05-21T14:19:46.023Z,58.79
2023-05-21T14:22:13.664Z,58.60
2023-05-21T14:24:40.918Z,58.67
2023-05-21T14:27:08.022Z,58.61
2023-05-21T14:29:35.396Z,58.82
2023-05-21T14:32:02.657Z,59.18
2023-05-21T14:34:30.004Z,59.19
2023-05-21T14:36:57.097Z,59.57
2023-05-21T14:39:26.652Z,59.41
2023-05-21T14:41:54.115Z,59.87
2023-05-21T14:44:21.282Z,59.92
2023-05-21T14:46:48.526Z,59.91
2023-05-21T14:49:15.683Z,59.57
2023-05-21T14:51:43.951Z,59.92
2023-05-21T14:54:11.305Z,59.78
2023-05-21T14:56:38.418Z,59.84
2023-05-21T14:59:05.697Z,59.91
2023-05-21T15:01:32.821Z,60.02
2023-05-21T15:04:00.226Z,59.96
2023-05-21T15:06:28.134Z,59.84
2023-05-21T15:08:55.257Z,59.58
2023-05-21T15:11:22.674Z,59.75
2023-05-21T15:13:49.871Z,59.92
2023-05-21T15:16:18.862Z,60.13
2023-05-21T15:18:47.080Z,60.27
2023-05-21T15:21:14.180Z,60.19
2023-05-21T15:23:41.380Z,59.94
2023-05-21T15:26:09.453Z,59.86
2023-05-21T15:28:36.542Z,60.07
2023-05-21T15:31:03.640Z,60.17
2023-05-21T15:33:31.964Z,60.67
2023-05-21T15:35:59.149Z,60.70
2023-05-21T15:38:26.404Z,61.23
2023-05-21T15:40:53.904Z,61.70
2023-05-21T15:43:21.481Z,61.95
2023-05-21T15:45:48.715Z,62.25
2023-05-21T15:48:20.174Z,62.93
2023-05-21T15:50:47.254Z,63.19
2023-05-21T15:53:14.315Z,63.72
2023-05-21T15:55:41.418Z,64.20
2023-05-21T15:58:08.618Z,64.63
2023-05-21T16:00:35.769Z,65.48
2023-05-21T16:03:03.170Z,66.08
2023-05-21T16:05:30.350Z,66.51
2023-05-21T16:07:57.452Z,67.28
2023-05-21T16:10:25.112Z,68.17
2023-05-21T16:12:52.960Z,69.13
2023-05-21T16:15:20.308Z,69.91
2023-05-21T16:17:47.562Z,70.61
2023-05-21T16:20:14.849Z,71.75
2023-05-21T16:22:42.047Z,72.41
2023-05-21T16:25:09.541Z,73.43
2023-05-21T16:27:36.729Z,74.51
2023-05-21T16:30:04.356Z,75.61
2023-05-21T16:32:31.569Z,76.85
2023-05-21T16:34:58.870Z,77.84
2023-05-21T16:37:26.913Z,79.34
2023-05-21T16:39:54.064Z,81.10
2023-05-21T16:42:21.710Z,82.90
2023-05-21T16:44:48.883Z,84.64
2023-05-21T16:47:16.181Z,86.09
2023-05-21T16:49:43.328Z,87.75
2023-05-21T16:52:10.783Z,89.99
2023-05-21T16:54:37.897Z,91.84
2023-05-21T16:57:06.849Z,93.71
2023-05-21T16:59:34.164Z,95.64
2023-05-21T17:02:01.620Z,99.66
2023-05-21T17:04:29.516Z,100.00
2023-05-21T17:06:57.327Z,100.00
2023-05-21T17:09:24.476Z,100.00
2023-05-21T17:11:51.617Z,100.00
2023-05-21T17:14:30.356Z,100.00
2023-05-21T17:17:02.781Z,100.00
2023-05-21T17:19:30.019Z,100.00
2023-05-21T17:22:00.522Z,100.00
2023-05-21T17:24:29.352Z,100.00
2023-05-21T17:26:56.501Z,100.00
2023-05-21T17:29:23.582Z,100.00
2023-05-21T17:31:51.130Z,100.00
2023-05-21T17:34:18.637Z,100.00
2023-05-21T17:36:46.012Z,100.00
2023-05-21T17:39:13.760Z,100.00
2023-05-21T17:41:41.749Z,100.00
2023-05-21T17:44:08.950Z,100.00
2023-05-21T17:46:36.306Z,100.00
2023-05-21T17:49:03.542Z,100.00
2023-05-21T17:51:31.649Z,100.00
2023-05-21T17:53:59.065Z,100.00
2023-05-21T17:56:27.189Z,100.00
2023-05-21T17:58:54.397Z,100.00
2023-05-21T18:01:21.706Z,100.00
2023-05-21T18:03:48.861Z,100.00
2023-05-21T18:06:16.043Z,100.00
2023-05-21T18:08:43.209Z,100.00
2023-05-21T18:11:10.492Z,100.00
2023-05-21T18:13:37.716Z,100.00
2023-05-21T18:16:05.302Z,100.00
2023-05-21T18:18:32.530Z,100.00
2023-05-21T18:21:00.003Z,100.00
2023-05-21T18:23:28.617Z,100.00
2023-05-21T18:25:55.951Z,100.00
2023-05-21T18:28:23.010Z,100.00
2023-05-21T18:30:50.114Z,100.00
2023-05-21T18:33:17.253Z,100.00
2023-05-21T18:35:44.791Z,100.00
2023-05-21T18:38:11.980Z,100.00
2023-05-21T18:40:39.504Z,100.00
2023-05-21T18:43:06.662Z,100.00
2023-05-21T18:45:34.218Z,100.00
2023-05-21T18:48:03.249Z,100.00
2023-05-21T18:50:31.956Z,100.00
2023-05-21T18:52:59.124Z,100.00
2023-05-21T18:55:26.757Z,100.00
2023-05-21T18:57:56.058Z,100.00
2023-05-21T19:00:23.381Z,100.00
2023-05-21T19:02:50.637Z,100.00
2023-05-21T19:05:17.797Z,100.00
2023-05-21T19:07:44.977Z,100.00
2023-05-21T19:10:12.766Z,100.00
2023-05-21T19:12:42.034Z,100.00
2023-05-21T19:15:10.250Z,100.00
2023-05-21T19:17:39.241Z,100.00
2023-05-21T19:20:09.931Z,100.00
2023-05-21T19:22:37.378Z,100.00
2023-05-21T19:25:04.897Z,100.00
2023-05-21T19:27:32.264Z,100.00
2023-05-21T19:30:00.025Z,100.00
2023-05-21T19:32:27.219Z,100.00
2023-05-21T19:34:54.308Z,100.00
2023-05-21T19:37:21.532Z,100.00
2023-05-21T19:39:51.136Z,100.00
2023-05-21T19:42:21.617Z,100.00
2023-05-21T19:44:48.922Z,100.00
2023-05-21T19:47:16.163Z,100.00
2023-05-21T19:49:43.375Z,100.00
2023-05-21T19:52:10.699Z,100.00
2023-05-21T19:54:37.926Z,100.00
2023-05-21T19:57:05.309Z,100.00
2023-05-21T19:59:32.703Z,100.00
2023-05-21T20:01:59.992Z,100.00
2023-05-21T20:04:28.408Z,100.00
2023-05-21T20:06:55.550Z,100.00
2023-05-21T20:09:22.718Z,100.00
2023-05-21T20:11:49.928Z,100.00
2023-05-21T20:14:17.081Z,100.00
2023-05-21T20:16:47.214Z,100.00
2023-05-21T20:19:15.463Z,100.00
2023-05-21T20:21:43.025Z,100.00
2023-05-21T20:24:11.544Z,100.00
2023-05-21T20:26:40.167Z,100.00
2023-05-21T20:29:08.249Z,100.00
2023-05-21T20:31:36.042Z,100.00
2023-05-21T20:34:07.932Z,100.00
2023-05-21T20:36:36.213Z,100.00
2023-05-21T20:39:03.863Z,100.00
2023-05-21T20:41:36.194Z,100.00
2023-05-21T20:44:07.382Z,100.00
2023-05-21T20:46:41.376Z,100.00
2023-05-21T20:49:09.960Z,100.00
2023-05-21T20:51:37.177Z,100.00
2023-05-21T20:54:04.571Z,100.00
2023-05-21T20:56:41.408Z,100.00
2023-05-21T20:59:11.486Z,100.00
2023-05-21T21:01:39.348Z,100.00
2023-05-21T21:04:06.754Z,100.00
2023-05-21T21:06:35.179Z,100.00
2023-05-21T21:09:02.377Z,100.00
2023-05-21T21:11:29.471Z,100.00
2023-05-21T21:13:56.726Z,100.00
2023-05-21T21:16:23.994Z,100.00
2023-05-21T21:18:51.325Z,100.00
2023-05-21T21:21:18.607Z,100.00
2023-05-21T21:23:45.864Z,100.00
2023-05-21T21:26:13.189Z,100.00
2023-05-21T21:28:40.698Z,100.00
2023-05-21T21:31:10.287Z,100.00
2023-05-21T21:33:39.063Z,100.00
2023-05-21T21:36:06.917Z,100.00
2023-05-21T21:38:34.375Z,100.00
2023-05-21T21:41:01.526Z,100.00
2023-05-21T21:43:28.700Z,100.00
2023-05-21T21:45:56.090Z,100.00
2023-05-21T21:48:23.209Z,100.00
2023-05-21T21:50:54.863Z,100.00
2023-05-21T21:53:22.850Z,100.00
2023-05-21T21:55:51.294Z,100.00
2023-05-21T21:58:18.851Z,100.00
2023-05-21T22:00:47.591Z,100.00
2023-05-21T22:03:15.188Z,100.00
2023-05-21T22:05:42.985Z,100.00
2023-05-21T22:08:10.277Z,100.00
2023-05-21T22:10:38.743Z,100.00
2023-05-21T22:13:06.172Z,100.00
2023-05-21T22:15:33.558Z,100.00
2023-05-21T22:18:02.692Z,100.00
2023-05-21T22:20:30.049Z,100.00
2023-05-21T22:22:58.698Z,100.00
2023-05-21T22:25:26.114Z,100.00
2023-05-21T22:27:53.450Z,100.00
2023-05-21T22:30:20.978Z,100.00
2023-05-21T22:32:48.383Z,100.00
2023-05-21T22:35:15.799Z,100.00
2023-05-21T22:37:47.656Z,100.00
2023-05-21T22:40:15.097Z,100.00
2023-05-21T22:42:42.307Z,100.00
2023-05-21T22:45:10.232Z,100.00
2023-05-21T22:47:39.907Z,100.00
2023-05-21T22:50:08.493Z,100.00
2023-05-21T22:52:38.449Z,100.00
2023-05-21T22:55:06.505Z,100.00
2023-05-21T22:57:33.720Z,100.00
2023-05-21T23:00:00.935Z,100.00
2023-05-21T23:02:29.090Z,100.00
2023-05-21T23:04:58.240Z,100.00
2023-05-21T23:07:26.062Z,100.00
2023-05-21T23:09:53.342Z,100.00
2023-05-21T23:12:20.623Z,100.00
2023-05-21T23:14:47.786Z,100.00
2023-05-21T23:17:15.131Z,100.00
2023-05-21T23:19:42.936Z,100.00
2023-05-21T23:22:12.404Z,100.00
2023-05-21T23:24:39.672Z,100.00
2023-05-21T23:27:06.830Z,100.00
2023-05-21T23:29:34.967Z,100.00
2023-05-21T23:32:05.345Z,100.00
2023-05-21T23:34:32.852Z,100.00
2023-05-21T23:37:00.711Z,100.00
2023-05-21T23:39:31.372Z,100.00
2023-05-21T23:41:58.836Z,100.00
2023-05-21T23:44:26.115Z,100.00
2023-05-21T23:46:53.266Z,100.00
2023-05-21T23:49:20.416Z,100.00
2023-05-21T23:51:50.878Z,100.00
2023-05-21T23:54:18.316Z,100.00
2023-05-21T23:56:46.088Z,100.00
2023-05-21T23:59:13.934Z,100.00
